LYNI/INI METAR and TAF weather

Enter ICAO airport designator
Station Type Date Time Source
LYNI METAR 2021/07/26 14:00 UTC NOAA

LYNI 261400Z 00000KT CAVOK 34/14 Q1016 NOSIG


Station Type Date Time Source
LYNI Decoded METAR 2021/07/26 14:00 UTC NOAA

Nis, Serbia and Montenegro (LYNI) 43-20N 021-54E 202M
Jul 26, 2021 - 10:00 AM EDT / 2021.07.26 1400 UTC
Wind: Calm:0
Visibility: greater than 7 mile(s):0
Temperature: 93 F (34 C)
Dew Point: 57 F (14 C)
Relative Humidity: 30%
Pressure (altimeter): 30.00 in. Hg (1016 hPa)
ob: LYNI 261400Z 00000KT CAVOK 34/14 Q1016 NOSIG
cycle: 14

Station Type Date Time Source
LYNI TAF 2021/07/26 12:21 UTC NOAA

TAF LYNI 261100Z 2612/2712 11005KT CAVOK TX35/2614Z TN20/2703Z

Example: see airport list